Time;durP1;ratioP1;P1;durP2;ratioP2;P2;SDS_P1;SDS_P2;PMS_P1;PMS_P2;Temp;Humidity;BMP_temperature;BMP_pressure;BME280_temperature;BME280_humidity;BME280_pressure;Samples;Min_cycle;Max_cycle;Signal;HPM_P1;HPM_P2
2021/08/26 00:09:42;;;;;;;1.40;1.30;;;21.60;99.90;;;;;;20749641;28;20199;-68
2021/08/26 00:19:46;;;;;;;1.27;0.73;;;21.50;99.90;;;;;;20748421;28;20227;-67
2021/08/26 00:29:51;;;;;;;0.40;0.40;;;21.50;99.90;;;;;;20734723;28;20191;-67
2021/08/26 00:39:55;;;;;;;1.23;1.13;;;21.40;99.90;;;;;;20753818;28;20249;-67
2021/08/26 00:50:00;;;;;;;0.80;0.33;;;21.40;99.90;;;;;;20752195;28;20206;-69
2021/08/26 01:00:07;;;;;;;1.63;0.70;;;21.40;99.90;;;;;;20735006;28;20687;-71
2021/08/26 01:10:17;;;;;;;2.50;1.70;;;21.40;99.90;;;;;;20780335;28;20217;-69
2021/08/26 01:20:22;;;;;;;0.80;0.80;;;21.40;99.90;;;;;;20765182;28;20307;-69
2021/08/26 01:30:32;;;;;;;0.53;0.53;;;21.30;99.90;;;;;;20778281;28;20206;-70
2021/08/26 01:40:38;;;;;;;1.30;0.93;;;21.20;99.90;;;;;;20777135;28;20243;-69
2021/08/26 01:50:44;;;;;;;1.63;1.03;;;21.50;99.90;;;;;;20775826;28;20186;-69
2021/08/26 02:00:48;;;;;;;0.97;0.87;;;21.50;99.90;;;;;;20765371;28;20336;-70
2021/08/26 02:10:53;;;;;;;1.23;0.73;;;21.50;99.90;;;;;;20774837;28;20205;-69
2021/08/26 02:20:56;;;;;;;1.17;0.60;;;21.50;99.90;;;;;;20693837;28;20226;-69
2021/08/26 02:31:02;;;;;;;1.07;0.57;;;21.70;99.90;;;;;;20711298;28;20198;-69
2021/08/26 02:41:05;;;;;;;1.90;0.67;;;21.50;99.90;;;;;;20720688;28;20454;-69
2021/08/26 02:51:10;;;;;;;2.43;0.60;;;21.70;99.90;;;;;;20748994;28;20213;-69
2021/08/26 03:01:15;;;;;;;1.60;1.43;;;21.90;99.90;;;;;;20734877;28;20230;-70
2021/08/26 03:11:20;;;;;;;1.80;0.83;;;21.80;99.90;;;;;;20770165;28;20556;-72
2021/08/26 03:21:24;;;;;;;0.20;0.20;;;21.60;99.90;;;;;;20734927;28;20296;-71
2021/08/26 03:31:29;;;;;;;0.50;0.50;;;21.50;99.90;;;;;;20780790;28;20256;-71
2021/08/26 03:41:33;;;;;;;1.17;0.60;;;21.50;99.90;;;;;;20745991;28;20246;-71
2021/08/26 03:51:38;;;;;;;0.70;0.70;;;21.50;99.90;;;;;;20708410;28;20674;-70
2021/08/26 04:01:42;;;;;;;4.50;0.63;;;22.10;99.90;;;;;;20791198;28;20662;-70
2021/08/26 04:11:48;;;;;;;0.87;0.80;;;22.10;99.90;;;;;;20847449;28;20479;-71
2021/08/26 04:21:52;;;;;;;0.80;0.60;;;22.00;99.90;;;;;;20862858;28;20205;-71
2021/08/26 04:31:57;;;;;;;1.93;0.80;;;21.80;99.90;;;;;;20844587;28;20288;-70
2021/08/26 04:42:01;;;;;;;1.10;0.87;;;21.70;99.90;;;;;;20859268;28;20293;-70
2021/08/26 04:52:07;;;;;;;1.30;0.97;;;21.50;99.90;;;;;;20861298;28;20689;-70
2021/08/26 05:02:10;;;;;;;0.70;0.63;;;21.50;99.90;;;;;;20815642;28;20303;-70
2021/08/26 05:12:16;;;;;;;2.53;0.50;;;21.70;99.90;;;;;;20776824;28;20632;-69
2021/08/26 05:22:19;;;;;;;0.40;0.40;;;21.70;99.90;;;;;;20774533;28;20209;-70
2021/08/26 05:32:25;;;;;;;0.27;0.23;;;21.70;99.90;;;;;;20773368;28;20382;-70
2021/08/26 05:42:28;;;;;;;0.70;0.70;;;21.70;99.90;;;;;;20773177;28;20363;-70
2021/08/26 05:52:34;;;;;;;0.97;0.60;;;21.90;99.90;;;;;;20773950;28;20719;-70
2021/08/26 06:02:38;;;;;;;1.27;0.77;;;22.00;99.90;;;;;;20719456;28;20281;-70
2021/08/26 06:12:44;;;;;;;0.73;0.63;;;22.20;99.90;;;;;;20688982;28;20322;-71
2021/08/26 06:22:48;;;;;;;1.23;0.63;;;22.50;99.90;;;;;;20691167;28;20460;-69
2021/08/26 06:32:54;;;;;;;1.95;1.05;;;22.80;99.90;;;;;;20693551;28;20222;-72
2021/08/26 06:42:57;;;;;;;1.25;1.15;;;23.10;99.90;;;;;;20688744;28;20628;-70
2021/08/26 06:53:02;;;;;;;1.42;0.60;;;23.60;99.90;;;;;;20704424;28;20742;-71
2021/08/26 07:03:06;;;;;;;0.73;0.60;;;24.00;99.90;;;;;;20715562;28;20594;-68
2021/08/26 07:13:11;;;;;;;0.55;0.50;;;24.20;99.90;;;;;;20750387;28;20226;-69
2021/08/26 07:23:15;;;;;;;2.13;0.73;;;24.40;99.90;;;;;;20734436;28;20241;-71
2021/08/26 07:33:20;;;;;;;0.20;0.17;;;24.10;99.90;;;;;;20740521;28;20218;-69
2021/08/26 07:43:25;;;;;;;6.32;1.42;;;24.40;99.90;;;;;;20770205;28;20565;-70
2021/08/26 07:53:31;;;;;;;3.50;2.42;;;24.40;99.90;;;;;;20773119;28;20252;-69
2021/08/26 08:03:35;;;;;;;0.95;0.88;;;24.60;99.90;;;;;;20739144;28;20199;-71
2021/08/26 08:13:40;;;;;;;0.63;0.47;;;25.10;99.90;;;;;;20732045;28;20234;-71
2021/08/26 08:23:45;;;;;;;3.53;0.65;;;25.00;99.90;;;;;;20751396;28;20639;-70
2021/08/26 08:33:50;;;;;;;1.75;0.88;;;25.50;99.90;;;;;;20778653;28;20225;-70
2021/08/26 08:43:57;;;;;;;0.85;0.55;;;25.90;99.90;;;;;;20777699;28;20275;-71
2021/08/26 08:54:02;;;;;;;0.65;0.65;;;26.30;99.90;;;;;;20750990;28;20789;-69
2021/08/26 09:04:09;;;;;;;0.90;0.63;;;26.70;99.90;;;;;;20761651;28;20195;-71
2021/08/26 09:14:17;;;;;;;1.58;0.85;;;27.00;99.90;;;;;;20775023;28;20718;-71
2021/08/26 09:24:21;;;;;;;1.38;1.25;;;27.10;99.90;;;;;;20775795;28;20198;-70
2021/08/26 09:34:27;;;;;;;3.88;1.27;;;27.70;99.90;;;;;;20773780;28;20232;-70
2021/08/26 09:44:32;;;;;;;1.00;0.90;;;27.40;99.90;;;;;;20729175;28;20708;-72
2021/08/26 09:54:40;;;;;;;2.38;1.30;;;26.90;99.90;;;;;;20680452;28;20230;-69
2021/08/26 10:04:44;;;;;;;1.55;0.98;;;26.80;99.90;;;;;;20751076;28;20260;-69
2021/08/26 10:14:53;;;;;;;2.47;1.70;;;27.10;99.90;;;;;;20769705;28;20222;-70
2021/08/26 10:25:00;;;;;;;1.38;0.80;;;27.20;99.90;;;;;;20749364;28;20194;-70
2021/08/26 10:35:09;;;;;;;2.17;0.73;;;27.50;99.90;;;;;;20772432;28;20221;-69
2021/08/26 10:45:22;;;;;;;1.38;0.50;;;27.60;99.90;;;;;;20766467;28;20356;-70
2021/08/26 10:55:32;;;;;;;1.00;0.77;;;27.70;99.90;;;;;;20768229;28;20309;-70
2021/08/26 11:05:39;;;;;;;1.95;0.98;;;28.00;99.90;;;;;;20770000;28;20198;-70
2021/08/26 11:15:45;;;;;;;0.52;0.52;;;28.00;99.90;;;;;;20741845;28;20323;-71
2021/08/26 11:25:49;;;;;;;0.95;0.70;;;28.80;99.90;;;;;;20758796;28;20202;-72
2021/08/26 11:35:54;;;;;;;1.38;0.68;;;29.00;99.90;;;;;;20781507;28;20580;-69
2021/08/26 11:45:58;;;;;;;0.70;0.60;;;29.30;99.90;;;;;;20780424;28;20233;-70
2021/08/26 11:56:03;;;;;;;3.53;1.17;;;29.70;99.90;;;;;;20759875;28;20249;-69
2021/08/26 12:06:10;;;;;;;1.77;1.42;;;29.90;99.90;;;;;;20730873;28;20187;-72
2021/08/26 12:16:25;;;;;;;11.75;1.33;;;30.50;99.90;;;;;;20702171;28;20231;-70
2021/08/26 12:26:36;;;;;;;2.35;1.50;;;30.80;99.90;;;;;;20779352;28;20190;-69
2021/08/26 12:36:43;;;;;;;1.10;1.00;;;30.90;99.90;;;;;;20848081;22;20234;-68
2021/08/26 12:46:56;;;;;;;1.67;1.00;;;31.00;99.90;;;;;;20720672;28;20229;-70
2021/08/26 12:57:00;;;;;;;0.65;0.43;;;31.40;99.90;;;;;;20695157;28;20245;-71
2021/08/26 13:07:17;;;;;;;0.95;0.90;;;32.10;99.90;;;;;;20696435;28;20202;-68
2021/08/26 13:17:25;;;;;;;0.90;0.80;;;33.10;99.90;;;;;;20691352;28;20719;-70
2021/08/26 13:27:29;;;;;;;5.93;1.30;;;32.40;99.90;;;;;;20695376;28;20722;-69
2021/08/26 13:37:36;;;;;;;1.02;0.95;;;32.20;99.90;;;;;;20661265;28;20390;-67
2021/08/26 13:47:40;;;;;;;10.70;1.52;;;32.20;99.90;;;;;;20620694;28;20206;-68
2021/08/26 13:58:06;;;;;;;0.85;0.85;;;32.90;99.90;;;;;;20690148;28;20799;-69
2021/08/26 14:08:10;;;;;;;2.50;1.27;;;33.50;99.90;;;;;;20651743;28;20297;-70
2021/08/26 14:18:15;;;;;;;8.25;1.50;;;32.90;99.90;;;;;;20677325;28;20229;-69
2021/08/26 14:28:19;;;;;;;4.00;1.13;;;29.40;99.90;;;;;;20610599;28;20196;-68
2021/08/26 14:38:24;;;;;;;1.23;0.68;;;27.70;99.90;;;;;;20609566;28;20320;-70
2021/08/26 14:48:29;;;;;;;1.00;0.65;;;27.00;99.90;;;;;;20609238;28;20219;-70
2021/08/26 14:58:35;;;;;;;0.60;0.50;;;27.00;99.90;;;;;;20659641;28;20230;-70
2021/08/26 15:08:38;;;;;;;8.75;1.27;;;26.80;99.90;;;;;;20702904;28;21061;-69
2021/08/26 15:18:44;;;;;;;2.00;0.77;;;27.00;99.90;;;;;;20708464;28;20227;-70
2021/08/26 15:28:48;;;;;;;0.63;0.52;;;27.10;99.90;;;;;;20703647;28;20209;-69
2021/08/26 15:38:55;;;;;;;1.02;0.63;;;27.70;99.90;;;;;;20701204;28;20380;-70
2021/08/26 15:48:59;;;;;;;0.43;0.43;;;29.00;99.90;;;;;;20700596;28;20239;-68
2021/08/26 15:59:07;;;;;;;4.97;0.90;;;28.50;99.90;;;;;;20700233;28;20361;-69
2021/08/26 16:09:11;;;;;;;9.18;0.95;;;28.10;99.90;;;;;;20696048;28;20199;-70
2021/08/26 16:19:17;;;;;;;2.80;0.85;;;27.70;99.90;;;;;;20703672;28;20993;-70
2021/08/26 16:29:21;;;;;;;0.55;0.35;;;27.80;99.90;;;;;;20673832;28;20208;-73
2021/08/26 16:39:27;;;;;;;7.53;1.48;;;27.70;99.90;;;;;;20617950;28;20227;-72
2021/08/26 16:49:31;;;;;;;2.10;1.08;;;27.70;99.90;;;;;;20635385;28;20592;-70
2021/08/26 16:59:36;;;;;;;2.33;1.33;;;28.10;99.90;;;;;;20690666;28;20677;-70
2021/08/26 17:09:40;;;;;;;1.48;0.50;;;27.70;99.90;;;;;;20692261;28;20651;-67
2021/08/26 17:19:45;;;;;;;8.25;1.08;;;27.70;99.90;;;;;;20694420;28;20230;-70
2021/08/26 17:29:50;;;;;;;1.02;0.90;;;28.00;99.90;;;;;;20695735;28;20198;-72
2021/08/26 17:39:55;;;;;;;2.42;0.90;;;28.50;99.90;;;;;;20693066;28;20682;-69
2021/08/26 17:49:59;;;;;;;1.40;1.02;;;27.20;99.90;;;;;;20705544;28;21006;-71
2021/08/26 18:00:08;;;;;;;0.63;0.50;;;26.90;99.90;;;;;;20684343;28;20230;-69
2021/08/26 18:10:12;;;;;;;2.42;1.77;;;26.60;99.90;;;;;;20695534;28;20267;-69
2021/08/26 18:20:17;;;;;;;1.58;0.65;;;26.50;99.90;;;;;;20692575;28;20226;-69
2021/08/26 18:30:21;;;;;;;1.35;0.60;;;26.60;99.90;;;;;;20700955;28;20611;-71
2021/08/26 18:40:26;;;;;;;5.22;0.60;;;26.80;99.90;;;;;;20706617;28;20316;-70
2021/08/26 18:50:29;;;;;;;3.97;1.83;;;26.70;99.90;;;;;;20709030;28;20999;-69
2021/08/26 19:00:35;;;;;;;0.70;0.60;;;26.50;99.90;;;;;;20706131;28;20222;-72
2021/08/26 19:10:39;;;;;;;3.03;1.60;;;26.40;99.90;;;;;;20720774;28;20203;-72
2021/08/26 19:20:46;;;;;;;1.33;1.05;;;26.50;99.90;;;;;;20739480;28;20232;-71
2021/08/26 19:30:50;;;;;;;4.03;1.08;;;26.60;99.90;;;;;;20787052;28;20738;-71
2021/08/26 19:40:57;;;;;;;0.70;0.70;;;26.30;99.90;;;;;;20705419;28;20321;-71
2021/08/26 19:51:01;;;;;;;2.08;1.02;;;26.30;99.90;;;;;;20697914;28;20203;-73
2021/08/26 20:01:07;;;;;;;2.33;1.30;;;26.10;99.90;;;;;;20703532;28;20630;-71
2021/08/26 20:11:11;;;;;;;2.50;1.33;;;26.20;99.90;;;;;;20700113;28;20211;-71
2021/08/26 20:21:16;;;;;;;3.88;1.17;;;26.00;99.90;;;;;;20699825;28;20268;-71
2021/08/26 20:31:20;;;;;;;1.38;1.00;;;25.90;99.90;;;;;;20710130;28;20207;-71
2021/08/26 20:41:25;;;;;;;1.88;1.60;;;25.80;99.90;;;;;;20709378;28;20321;-70
2021/08/26 20:51:29;;;;;;;1.10;1.00;;;25.70;99.90;;;;;;20727846;28;20198;-73
2021/08/26 21:01:34;;;;;;;1.20;0.80;;;25.50;99.90;;;;;;20701907;28;20226;-73
2021/08/26 21:11:38;;;;;;;1.63;1.33;;;25.40;99.90;;;;;;20718065;28;20264;-71
2021/08/26 21:21:43;;;;;;;0.80;0.40;;;25.30;99.90;;;;;;20699786;28;20221;-69
2021/08/26 21:31:47;;;;;;;1.33;1.13;;;25.20;99.90;;;;;;20694478;28;20249;-68
2021/08/26 21:41:52;;;;;;;1.77;0.88;;;25.10;99.90;;;;;;20692990;28;20219;-70
2021/08/26 21:51:55;;;;;;;2.60;0.68;;;24.80;99.90;;;;;;20693729;28;20199;-69
2021/08/26 22:02:00;;;;;;;1.15;1.02;;;24.70;99.90;;;;;;20675590;28;20618;-69
2021/08/26 22:12:05;;;;;;;1.00;0.75;;;24.80;99.90;;;;;;20692196;28;21114;-68
2021/08/26 22:22:11;;;;;;;1.48;1.38;;;24.50;99.90;;;;;;20730924;28;20917;-68
2021/08/26 22:32:15;;;;;;;0.80;0.80;;;24.50;99.90;;;;;;20723476;28;20219;-69
2021/08/26 22:42:21;;;;;;;0.80;0.80;;;24.30;99.90;;;;;;20697036;28;20222;-70
2021/08/26 22:52:24;;;;;;;2.10;1.13;;;24.20;99.90;;;;;;20699729;28;20203;-70
2021/08/26 23:02:30;;;;;;;3.80;1.52;;;24.20;99.90;;;;;;20691020;28;20227;-70
2021/08/26 23:12:34;;;;;;;0.55;0.47;;;24.00;99.90;;;;;;20694752;28;20207;-69
2021/08/26 23:22:39;;;;;;;1.15;0.73;;;24.00;99.90;;;;;;20716961;28;20217;-70
2021/08/26 23:32:43;;;;;;;1.63;1.02;;;23.90;99.90;;;;;;20727636;28;20242;-69
2021/08/26 23:42:48;;;;;;;0.68;0.68;;;23.80;99.90;;;;;;20704014;28;20221;-68
2021/08/26 23:52:52;;;;;;;0.38;0.38;;;23.80;99.90;;;;;;20706033;28;20551;-71
